Hlavní strana
METAR-TAF:

METAR-TAF

Letiště :

Mar del Plata, Argentina

zeměpisná šířka: 37-56S, zeměpisná délka: 057-35W, výška: 18 m

Aktuální stav počasí

Zpráva byla vytvořena před 9 minutami, v 23:00 UTC
Severozápadní vítr 10 kt
Teplota 24°C
Vlhkost vzduchu 38%
Tlak 1011 hPa
Viditelnost 10 km a více
Žádná oblačnost pod 1500 m, nevyskytují se cumulonimby.

METAR: SAZM 152300Z 32010KT CAVOK 24/09 Q1011

Čas: 20:09 (23:09 UTC)

Předpověď počasí

Zpráva byla vytvořena před 6 hodinami a 9 minutami, v 17:00 UTC
Předpověď platná od 15 v 18 UTC do 16 v 18 UTC
Severozápadní vítr 20 kt
Viditelnost 10 km a více
Polojasno ve výšce 3000 ft
Změna
od 15 v 21 UTC do 16 v 00 UTC
Severozápadní vítr 15 kt s nárazy do 30 kt
Viditelnost 10 km a více
Žádná oblačnost pod 1500 m, nevyskytují se cumulonimby.
Změna
od 16 v 12 UTC do 16 v 15 UTC
Severozápadní vítr 15 kt

TAF: SAZM 151700Z 1518/1618 32020KT 9999 SCT030 TX32/1618Z TN14/1610Z BECMG 1521/1600 32015G30KT CAVOK BECMG 1612/1615 32015KT

Stav a předpovědi počasí z více než 4 000 letišť (zprávy METAR a TAF).

Červené a žluté tečky na mapě představují dostupné meteorologické stanice.

Když kurzor umístíte na tečku, zobrazí se název stanice.

Pak kliknutím zobrazíte stav a předpověď počasí.

Chcete-li změnit mapu, kliknutím na zelené tlačítko se znaménkem +mapu přiblížíte, kliknutím na zelené tlačítko se znaménkem – mapu oddálíte a kliknutím na zelené šipky přejdete na sousední mapy.


METAR-TAF: